sensor_id;sensor_type;location;lat;lon;timestamp;temperature;humidity
74822;DHT22;63353;48.702;8.884;2022-09-09T06:23:03;22.20;53.80
74822;DHT22;63353;48.702;8.884;2022-09-09T06:25:29;22.20;54.10
74822;DHT22;63353;48.702;8.884;2022-09-09T06:27:55;22.20;54.60
74822;DHT22;63353;48.702;8.884;2022-09-09T06:30:20;22.20;54.50
74822;DHT22;63353;48.702;8.884;2022-09-09T06:32:46;22.20;54.20
74822;DHT22;63353;48.702;8.884;2022-09-09T06:35:11;22.20;54.40
74822;DHT22;63353;48.702;8.884;2022-09-09T06:37:38;22.20;54.30
74822;DHT22;63353;48.702;8.884;2022-09-09T06:40:04;22.00;54.60
74822;DHT22;63353;48.702;8.884;2022-09-09T06:42:30;21.90;55.10
74822;DHT22;63353;48.702;8.884;2022-09-09T06:44:56;21.80;54.90
74822;DHT22;63353;48.702;8.884;2022-09-09T06:47:22;21.70;55.10
74822;DHT22;63353;48.702;8.884;2022-09-09T06:49:48;21.70;55.30
74822;DHT22;63353;48.702;8.884;2022-09-09T06:52:14;21.80;55.30
74822;DHT22;63353;48.702;8.884;2022-09-09T06:54:39;21.90;55.10
74822;DHT22;63353;48.702;8.884;2022-09-09T06:57:05;21.90;55.20
74822;DHT22;63353;48.702;8.884;2022-09-09T06:59:32;21.80;55.80
74822;DHT22;63353;48.702;8.884;2022-09-09T07:01:58;21.80;55.60
74822;DHT22;63353;48.702;8.884;2022-09-09T07:04:23;21.80;55.70
74822;DHT22;63353;48.702;8.884;2022-09-09T07:06:50;21.80;56.00
74822;DHT22;63353;48.702;8.884;2022-09-09T07:09:17;21.80;56.00
74822;DHT22;63353;48.702;8.884;2022-09-09T07:11:45;21.70;56.10
74822;DHT22;63353;48.702;8.884;2022-09-09T07:14:11;21.70;56.20
74822;DHT22;63353;48.702;8.884;2022-09-09T07:16:41;21.70;56.20
74822;DHT22;63353;48.702;8.884;2022-09-09T07:19:07;21.80;56.60
74822;DHT22;63353;48.702;8.884;2022-09-09T07:21:33;21.80;56.30
74822;DHT22;63353;48.702;8.884;2022-09-09T07:24:00;21.60;56.20
74822;DHT22;63353;48.702;8.884;2022-09-09T07:26:28;21.30;57.60
74822;DHT22;63353;48.702;8.884;2022-09-09T07:28:54;21.20;57.60
74822;DHT22;63353;48.702;8.884;2022-09-09T07:31:27;21.20;58.10
74822;DHT22;63353;48.702;8.884;2022-09-09T07:33:53;21.10;58.20
74822;DHT22;63353;48.702;8.884;2022-09-09T07:36:24;21.00;58.40
74822;DHT22;63353;48.702;8.884;2022-09-09T07:38:56;21.00;58.80
74822;DHT22;63353;48.702;8.884;2022-09-09T07:41:24;21.00;59.00
74822;DHT22;63353;48.702;8.884;2022-09-09T07:43:51;20.90;59.10
74822;DHT22;63353;48.702;8.884;2022-09-09T07:46:18;20.90;59.60
74822;DHT22;63353;48.702;8.884;2022-09-09T07:48:52;20.90;59.50
74822;DHT22;63353;48.702;8.884;2022-09-09T07:51:27;21.00;59.20
74822;DHT22;63353;48.702;8.884;2022-09-09T07:53:56;21.20;58.60
74822;DHT22;63353;48.702;8.884;2022-09-09T07:56:23;21.30;58.40
74822;DHT22;63353;48.702;8.884;2022-09-09T07:58:51;21.50;57.90
74822;DHT22;63353;48.702;8.884;2022-09-09T08:01:23;21.40;57.70
74822;DHT22;63353;48.702;8.884;2022-09-09T08:03:57;21.50;57.80
74822;DHT22;63353;48.702;8.884;2022-09-09T08:06:28;21.60;57.50
74822;DHT22;63353;48.702;8.884;2022-09-09T08:08:55;21.60;57.70
74822;DHT22;63353;48.702;8.884;2022-09-09T08:11:22;21.70;58.00
74822;DHT22;63353;48.702;8.884;2022-09-09T08:13:50;21.70;57.90
74822;DHT22;63353;48.702;8.884;2022-09-09T08:16:19;21.70;57.60
74822;DHT22;63353;48.702;8.884;2022-09-09T08:18:47;21.80;57.00
74822;DHT22;63353;48.702;8.884;2022-09-09T08:21:16;21.70;57.20
74822;DHT22;63353;48.702;8.884;2022-09-09T08:23:44;21.70;57.00
74822;DHT22;63353;48.702;8.884;2022-09-09T08:26:28;21.60;57.40
74822;DHT22;63353;48.702;8.884;2022-09-09T08:28:56;21.70;57.20
74822;DHT22;63353;48.702;8.884;2022-09-09T08:31:28;21.70;57.00
74822;DHT22;63353;48.702;8.884;2022-09-09T08:33:55;21.90;56.80
74822;DHT22;63353;48.702;8.884;2022-09-09T08:36:23;22.00;56.50
74822;DHT22;63353;48.702;8.884;2022-09-09T08:38:51;22.10;56.60
74822;DHT22;63353;48.702;8.884;2022-09-09T08:44:37;22.00;56.30
74822;DHT22;63353;48.702;8.884;2022-09-09T08:52:30;21.70;56.90
74822;DHT22;63353;48.702;8.884;2022-09-09T08:55:03;21.90;57.30
74822;DHT22;63353;48.702;8.884;2022-09-09T08:57:31;22.00;57.60
74822;DHT22;63353;48.702;8.884;2022-09-09T08:59:58;22.10;57.40
74822;DHT22;63353;48.702;8.884;2022-09-09T09:05:36;22.30;57.50
74822;DHT22;63353;48.702;8.884;2022-09-09T09:11:10;22.40;57.20
74822;DHT22;63353;48.702;8.884;2022-09-09T09:13:45;22.50;57.20
74822;DHT22;63353;48.702;8.884;2022-09-09T09:16:35;22.60;56.60
74822;DHT22;63353;48.702;8.884;2022-09-09T09:19:03;22.70;56.30
74822;DHT22;63353;48.702;8.884;2022-09-09T09:24:00;22.90;55.90
74822;DHT22;63353;48.702;8.884;2022-09-09T09:26:31;23.10;55.90
74822;DHT22;63353;48.702;8.884;2022-09-09T09:28:59;23.20;55.80
74822;DHT22;63353;48.702;8.884;2022-09-09T09:31:26;23.30;55.60
74822;DHT22;63353;48.702;8.884;2022-09-09T09:33:56;23.30;55.50
74822;DHT22;63353;48.702;8.884;2022-09-09T09:36:44;23.40;55.40
74822;DHT22;63353;48.702;8.884;2022-09-09T09:39:25;23.50;55.30
74822;DHT22;63353;48.702;8.884;2022-09-09T09:41:52;23.60;55.10
74822;DHT22;63353;48.702;8.884;2022-09-09T09:44:27;23.70;55.10
74822;DHT22;63353;48.702;8.884;2022-09-09T09:47:05;23.70;54.90
74822;DHT22;63353;48.702;8.884;2022-09-09T09:49:31;23.80;54.80
74822;DHT22;63353;48.702;8.884;2022-09-09T09:52:03;23.90;54.90
74822;DHT22;63353;48.702;8.884;2022-09-09T09:54:33;23.90;54.90
74822;DHT22;63353;48.702;8.884;2022-09-09T09:57:13;23.90;54.90
74822;DHT22;63353;48.702;8.884;2022-09-09T09:59:40;23.90;54.60
74822;DHT22;63353;48.702;8.884;2022-09-09T10:04:39;23.90;54.10
74822;DHT22;63353;48.702;8.884;2022-09-09T10:07:12;23.90;55.30
74822;DHT22;63353;48.702;8.884;2022-09-09T10:09:38;23.90;54.30
74822;DHT22;63353;48.702;8.884;2022-09-09T10:36:49;24.00;52.80
74822;DHT22;63353;48.702;8.884;2022-09-09T10:39:35;24.00;51.90
74822;DHT22;63353;48.702;8.884;2022-09-09T10:42:35;23.60;52.10
74822;DHT22;63353;48.702;8.884;2022-09-09T10:54:06;23.40;50.10
74822;DHT22;63353;48.702;8.884;2022-09-09T10:56:36;23.40;50.00
74822;DHT22;63353;48.702;8.884;2022-09-09T10:59:13;23.40;50.10
74822;DHT22;63353;48.702;8.884;2022-09-09T11:01:46;23.40;48.70
74822;DHT22;63353;48.702;8.884;2022-09-09T11:04:22;23.40;50.40
74822;DHT22;63353;48.702;8.884;2022-09-09T11:06:52;23.10;50.60
74822;DHT22;63353;48.702;8.884;2022-09-09T11:09:27;23.00;50.30
74822;DHT22;63353;48.702;8.884;2022-09-09T11:11:56;22.80;51.30
74822;DHT22;63353;48.702;8.884;2022-09-09T11:14:36;22.90;51.90
74822;DHT22;63353;48.702;8.884;2022-09-09T11:17:10;22.90;52.20
74822;DHT22;63353;48.702;8.884;2022-09-09T11:19:42;23.00;52.40
74822;DHT22;63353;48.702;8.884;2022-09-09T11:24:45;23.10;52.40
74822;DHT22;63353;48.702;8.884;2022-09-09T11:30:18;23.20;52.70
74822;DHT22;63353;48.702;8.884;2022-09-09T11:35:47;23.20;53.70
74822;DHT22;63353;48.702;8.884;2022-09-09T11:40:59;22.70;55.90
74822;DHT22;63353;48.702;8.884;2022-09-09T11:43:46;22.30;57.60
74822;DHT22;63353;48.702;8.884;2022-09-09T11:46:15;22.60;57.00
74822;DHT22;63353;48.702;8.884;2022-09-09T11:48:44;22.80;56.60
74822;DHT22;63353;48.702;8.884;2022-09-09T12:05:07;23.50;55.80
74822;DHT22;63353;48.702;8.884;2022-09-09T12:07:51;23.50;55.70
74822;DHT22;63353;48.702;8.884;2022-09-09T12:12:44;23.60;55.60
74822;DHT22;63353;48.702;8.884;2022-09-09T12:17:44;23.70;55.60
74822;DHT22;63353;48.702;8.884;2022-09-09T12:20:36;23.70;55.60
74822;DHT22;63353;48.702;8.884;2022-09-09T12:28:39;23.70;55.00
74822;DHT22;63353;48.702;8.884;2022-09-09T12:31:17;23.60;54.10
74822;DHT22;63353;48.702;8.884;2022-09-09T12:33:46;23.70;54.20
74822;DHT22;63353;48.702;8.884;2022-09-09T12:36:24;23.70;53.80
74822;DHT22;63353;48.702;8.884;2022-09-09T12:38:55;23.80;53.60
74822;DHT22;63353;48.702;8.884;2022-09-09T12:41:24;23.80;53.70
74822;DHT22;63353;48.702;8.884;2022-09-09T12:44:02;23.80;53.40
74822;DHT22;63353;48.702;8.884;2022-09-09T12:46:38;23.80;53.40
74822;DHT22;63353;48.702;8.884;2022-09-09T12:49:05;23.90;53.40
74822;DHT22;63353;48.702;8.884;2022-09-09T12:51:33;23.90;53.10
74822;DHT22;63353;48.702;8.884;2022-09-09T12:54:00;23.90;53.10
74822;DHT22;63353;48.702;8.884;2022-09-09T12:56:28;24.00;53.60
74822;DHT22;63353;48.702;8.884;2022-09-09T12:58:56;24.00;53.00
74822;DHT22;63353;48.702;8.884;2022-09-09T13:01:29;23.90;53.30
74822;DHT22;63353;48.702;8.884;2022-09-09T13:03:55;24.00;53.20
74822;DHT22;63353;48.702;8.884;2022-09-09T13:06:26;24.00;52.20
74822;DHT22;63353;48.702;8.884;2022-09-09T13:08:54;24.00;52.20
74822;DHT22;63353;48.702;8.884;2022-09-09T13:11:24;23.90;51.10
74822;DHT22;63353;48.702;8.884;2022-09-09T13:13:57;23.90;51.20
74822;DHT22;63353;48.702;8.884;2022-09-09T13:16:27;24.00;50.40
74822;DHT22;63353;48.702;8.884;2022-09-09T13:18:58;24.00;48.10
74822;DHT22;63353;48.702;8.884;2022-09-09T13:21:36;24.00;48.10
74822;DHT22;63353;48.702;8.884;2022-09-09T13:24:21;24.00;47.20
74822;DHT22;63353;48.702;8.884;2022-09-09T13:27:00;24.10;48.40
74822;DHT22;63353;48.702;8.884;2022-09-09T13:29:29;24.10;48.20
74822;DHT22;63353;48.702;8.884;2022-09-09T13:32:06;24.20;47.90
74822;DHT22;63353;48.702;8.884;2022-09-09T13:34:34;24.20;47.40
74822;DHT22;63353;48.702;8.884;2022-09-09T13:37:05;24.30;47.50
74822;DHT22;63353;48.702;8.884;2022-09-09T13:44:26;24.20;45.60
74822;DHT22;63353;48.702;8.884;2022-09-09T13:49:39;24.00;46.20
74822;DHT22;63353;48.702;8.884;2022-09-09T13:52:13;24.10;46.00
74822;DHT22;63353;48.702;8.884;2022-09-09T13:54:39;24.10;44.40
74822;DHT22;63353;48.702;8.884;2022-09-09T13:57:11;24.10;44.30
74822;DHT22;63353;48.702;8.884;2022-09-09T13:59:39;24.00;45.10
74822;DHT22;63353;48.702;8.884;2022-09-09T14:02:04;24.10;45.50
74822;DHT22;63353;48.702;8.884;2022-09-09T14:04:30;24.10;46.40
74822;DHT22;63353;48.702;8.884;2022-09-09T14:06:56;24.20;46.30
74822;DHT22;63353;48.702;8.884;2022-09-09T14:09:22;24.20;46.10
74822;DHT22;63353;48.702;8.884;2022-09-09T14:11:47;24.20;46.40
74822;DHT22;63353;48.702;8.884;2022-09-09T14:14:13;24.20;46.70
74822;DHT22;63353;48.702;8.884;2022-09-09T14:16:38;24.30;47.10
74822;DHT22;63353;48.702;8.884;2022-09-09T14:19:04;24.30;47.10
74822;DHT22;63353;48.702;8.884;2022-09-09T14:21:30;24.40;47.30
74822;DHT22;63353;48.702;8.884;2022-09-09T14:23:55;24.40;47.70
74822;DHT22;63353;48.702;8.884;2022-09-09T14:26:23;24.50;47.60
74822;DHT22;63353;48.702;8.884;2022-09-09T14:28:49;24.50;48.00
74822;DHT22;63353;48.702;8.884;2022-09-09T14:31:15;24.70;47.80
74822;DHT22;63353;48.702;8.884;2022-09-09T14:33:46;24.70;47.80
74822;DHT22;63353;48.702;8.884;2022-09-09T14:36:12;24.70;47.90
74822;DHT22;63353;48.702;8.884;2022-09-09T14:38:38;24.70;48.00
74822;DHT22;63353;48.702;8.884;2022-09-09T14:41:05;24.70;48.40
74822;DHT22;63353;48.702;8.884;2022-09-09T14:43:31;24.80;48.30
74822;DHT22;63353;48.702;8.884;2022-09-09T14:46:07;24.80;48.30
74822;DHT22;63353;48.702;8.884;2022-09-09T14:48:33;24.60;42.90
74822;DHT22;63353;48.702;8.884;2022-09-09T14:51:11;24.30;44.10
74822;DHT22;63353;48.702;8.884;2022-09-09T14:53:39;24.30;42.90
74822;DHT22;63353;48.702;8.884;2022-09-09T14:56:06;24.30;43.50
74822;DHT22;63353;48.702;8.884;2022-09-09T14:58:32;24.20;44.50
74822;DHT22;63353;48.702;8.884;2022-09-09T15:01:10;24.20;45.00
74822;DHT22;63353;48.702;8.884;2022-09-09T15:03:39;24.30;45.30
74822;DHT22;63353;48.702;8.884;2022-09-09T15:06:10;24.30;45.70
74822;DHT22;63353;48.702;8.884;2022-09-09T15:08:37;24.30;46.60
74822;DHT22;63353;48.702;8.884;2022-09-09T15:11:04;24.40;46.80
74822;DHT22;63353;48.702;8.884;2022-09-09T15:13:30;24.50;46.40
74822;DHT22;63353;48.702;8.884;2022-09-09T15:15:56;24.40;46.30
74822;DHT22;63353;48.702;8.884;2022-09-09T15:18:23;24.40;46.00
74822;DHT22;63353;48.702;8.884;2022-09-09T15:20:49;24.40;46.00
74822;DHT22;63353;48.702;8.884;2022-09-09T15:23:15;24.40;46.30
74822;DHT22;63353;48.702;8.884;2022-09-09T15:25:55;24.40;46.10
74822;DHT22;63353;48.702;8.884;2022-09-09T15:28:22;24.40;47.20
74822;DHT22;63353;48.702;8.884;2022-09-09T15:30:51;24.40;46.70
74822;DHT22;63353;48.702;8.884;2022-09-09T15:33:19;24.30;46.00
74822;DHT22;63353;48.702;8.884;2022-09-09T15:35:45;24.30;46.20
74822;DHT22;63353;48.702;8.884;2022-09-09T15:38:11;24.30;45.90
74822;DHT22;63353;48.702;8.884;2022-09-09T15:40:40;24.10;45.90
74822;DHT22;63353;48.702;8.884;2022-09-09T15:43:06;24.10;46.00
74822;DHT22;63353;48.702;8.884;2022-09-09T15:45:33;24.00;45.50
74822;DHT22;63353;48.702;8.884;2022-09-09T15:48:00;24.00;45.60
74822;DHT22;63353;48.702;8.884;2022-09-09T15:50:26;24.00;45.50
74822;DHT22;63353;48.702;8.884;2022-09-09T15:52:52;24.00;45.20
74822;DHT22;63353;48.702;8.884;2022-09-09T15:55:19;23.90;45.50
74822;DHT22;63353;48.702;8.884;2022-09-09T15:57:46;23.90;45.70
74822;DHT22;63353;48.702;8.884;2022-09-09T16:00:12;23.90;46.20
74822;DHT22;63353;48.702;8.884;2022-09-09T16:02:39;23.90;46.50
74822;DHT22;63353;48.702;8.884;2022-09-09T16:05:05;24.00;46.70
74822;DHT22;63353;48.702;8.884;2022-09-09T16:07:31;24.00;47.20
74822;DHT22;63353;48.702;8.884;2022-09-09T16:09:57;23.90;47.40
74822;DHT22;63353;48.702;8.884;2022-09-09T16:12:23;24.00;47.50
74822;DHT22;63353;48.702;8.884;2022-09-09T16:14:48;24.00;47.70
74822;DHT22;63353;48.702;8.884;2022-09-09T16:17:14;23.90;48.10
74822;DHT22;63353;48.702;8.884;2022-09-09T16:19:41;23.90;48.40
74822;DHT22;63353;48.702;8.884;2022-09-09T16:22:06;23.90;48.50
74822;DHT22;63353;48.702;8.884;2022-09-09T16:24:33;24.00;48.80
74822;DHT22;63353;48.702;8.884;2022-09-09T16:26:58;24.00;49.00
74822;DHT22;63353;48.702;8.884;2022-09-09T16:29:24;24.00;49.10
74822;DHT22;63353;48.702;8.884;2022-09-09T16:31:53;24.00;49.10
74822;DHT22;63353;48.702;8.884;2022-09-09T16:34:19;24.00;49.10
74822;DHT22;63353;48.702;8.884;2022-09-09T16:36:47;24.00;49.20
74822;DHT22;63353;48.702;8.884;2022-09-09T16:39:14;24.00;49.30
74822;DHT22;63353;48.702;8.884;2022-09-09T16:41:41;24.00;49.30
74822;DHT22;63353;48.702;8.884;2022-09-09T16:44:09;23.90;49.50
74822;DHT22;63353;48.702;8.884;2022-09-09T16:46:37;23.90;49.40
74822;DHT22;63353;48.702;8.884;2022-09-09T16:49:06;23.90;49.60
74822;DHT22;63353;48.702;8.884;2022-09-09T16:51:35;23.90;49.70
74822;DHT22;63353;48.702;8.884;2022-09-09T16:54:02;23.80;49.70
74822;DHT22;63353;48.702;8.884;2022-09-09T16:56:31;23.70;49.80
74822;DHT22;63353;48.702;8.884;2022-09-09T16:59:03;23.70;49.90
74822;DHT22;63353;48.702;8.884;2022-09-09T17:01:32;23.70;49.90
74822;DHT22;63353;48.702;8.884;2022-09-09T17:04:01;23.70;49.90
74822;DHT22;63353;48.702;8.884;2022-09-09T17:06:31;23.70;50.00
74822;DHT22;63353;48.702;8.884;2022-09-09T17:09:06;23.70;50.00
74822;DHT22;63353;48.702;8.884;2022-09-09T17:11:33;23.80;50.10
74822;DHT22;63353;48.702;8.884;2022-09-09T17:13:59;23.80;50.30
74822;DHT22;63353;48.702;8.884;2022-09-09T17:16:28;23.80;50.50
74822;DHT22;63353;48.702;8.884;2022-09-09T17:18:55;23.90;50.30
74822;DHT22;63353;48.702;8.884;2022-09-09T17:21:23;23.90;50.40
74822;DHT22;63353;48.702;8.884;2022-09-09T17:23:50;23.90;50.60
74822;DHT22;63353;48.702;8.884;2022-09-09T17:26:19;23.90;50.70
74822;DHT22;63353;48.702;8.884;2022-09-09T17:28:45;23.90;51.00
74822;DHT22;63353;48.702;8.884;2022-09-09T17:31:13;23.90;51.00
74822;DHT22;63353;48.702;8.884;2022-09-09T17:33:43;23.90;50.90
74822;DHT22;63353;48.702;8.884;2022-09-09T17:36:23;23.90;51.00
74822;DHT22;63353;48.702;8.884;2022-09-09T17:38:50;23.90;51.00
74822;DHT22;63353;48.702;8.884;2022-09-09T17:41:18;23.90;51.40
74822;DHT22;63353;48.702;8.884;2022-09-09T17:43:45;23.90;51.30
74822;DHT22;63353;48.702;8.884;2022-09-09T17:46:17;23.90;51.40
74822;DHT22;63353;48.702;8.884;2022-09-09T17:48:45;23.90;51.20
74822;DHT22;63353;48.702;8.884;2022-09-09T17:51:20;23.90;51.60
74822;DHT22;63353;48.702;8.884;2022-09-09T17:53:49;23.90;51.50
74822;DHT22;63353;48.702;8.884;2022-09-09T17:56:18;23.90;51.70
74822;DHT22;63353;48.702;8.884;2022-09-09T17:58:46;23.90;51.80
74822;DHT22;63353;48.702;8.884;2022-09-09T18:01:20;23.90;51.60
74822;DHT22;63353;48.702;8.884;2022-09-09T18:03:47;23.90;51.30
74822;DHT22;63353;48.702;8.884;2022-09-09T18:06:15;23.80;50.80
74822;DHT22;63353;48.702;8.884;2022-09-09T18:08:46;23.60;50.70
74822;DHT22;63353;48.702;8.884;2022-09-09T18:11:12;23.60;50.90
74822;DHT22;63353;48.702;8.884;2022-09-09T18:13:37;23.60;51.00
74822;DHT22;63353;48.702;8.884;2022-09-09T18:16:07;23.50;51.50
74822;DHT22;63353;48.702;8.884;2022-09-09T18:18:33;23.60;51.70
74822;DHT22;63353;48.702;8.884;2022-09-09T18:21:01;23.30;51.30
74822;DHT22;63353;48.702;8.884;2022-09-09T18:23:28;23.10;51.20
74822;DHT22;63353;48.702;8.884;2022-09-09T18:25:54;22.70;51.50
74822;DHT22;63353;48.702;8.884;2022-09-09T18:28:21;22.60;52.20
74822;DHT22;63353;48.702;8.884;2022-09-09T18:30:47;22.70;52.50
74822;DHT22;63353;48.702;8.884;2022-09-09T18:33:13;22.80;52.50
74822;DHT22;63353;48.702;8.884;2022-09-09T18:35:39;22.90;52.60
74822;DHT22;63353;48.702;8.884;2022-09-09T18:38:04;23.00;52.00
74822;DHT22;63353;48.702;8.884;2022-09-09T18:40:31;23.00;52.10
74822;DHT22;63353;48.702;8.884;2022-09-09T18:42:57;23.10;52.40
74822;DHT22;63353;48.702;8.884;2022-09-09T18:45:22;23.10;52.50
74822;DHT22;63353;48.702;8.884;2022-09-09T18:47:48;23.20;52.70
74822;DHT22;63353;48.702;8.884;2022-09-09T18:50:14;23.10;52.60
74822;DHT22;63353;48.702;8.884;2022-09-09T18:52:40;23.10;52.70
74822;DHT22;63353;48.702;8.884;2022-09-09T18:55:07;23.10;52.80
74822;DHT22;63353;48.702;8.884;2022-09-09T18:57:33;23.10;52.80
74822;DHT22;63353;48.702;8.884;2022-09-09T18:59:59;23.10;52.90
74822;DHT22;63353;48.702;8.884;2022-09-09T19:02:25;23.10;53.00
74822;DHT22;63353;48.702;8.884;2022-09-09T19:04:51;23.10;53.10
74822;DHT22;63353;48.702;8.884;2022-09-09T19:07:17;23.10;53.10
74822;DHT22;63353;48.702;8.884;2022-09-09T19:09:43;23.10;53.30
74822;DHT22;63353;48.702;8.884;2022-09-09T19:12:09;23.10;53.40
74822;DHT22;63353;48.702;8.884;2022-09-09T19:14:35;23.10;53.40
74822;DHT22;63353;48.702;8.884;2022-09-09T19:17:01;23.10;53.40
74822;DHT22;63353;48.702;8.884;2022-09-09T19:19:31;23.10;53.40
74822;DHT22;63353;48.702;8.884;2022-09-09T19:22:01;23.10;53.60
74822;DHT22;63353;48.702;8.884;2022-09-09T19:24:29;23.10;53.60
74822;DHT22;63353;48.702;8.884;2022-09-09T19:26:58;23.10;53.60
74822;DHT22;63353;48.702;8.884;2022-09-09T19:29:27;23.10;53.50
74822;DHT22;63353;48.702;8.884;2022-09-09T19:31:55;23.10;53.60
74822;DHT22;63353;48.702;8.884;2022-09-09T19:34:22;23.10;53.60
74822;DHT22;63353;48.702;8.884;2022-09-09T19:36:49;23.10;53.70
74822;DHT22;63353;48.702;8.884;2022-09-09T19:39:16;23.10;53.70
74822;DHT22;63353;48.702;8.884;2022-09-09T19:41:42;23.10;53.70
74822;DHT22;63353;48.702;8.884;2022-09-09T19:44:11;23.10;53.70
74822;DHT22;63353;48.702;8.884;2022-09-09T19:46:39;23.10;53.70
74822;DHT22;63353;48.702;8.884;2022-09-09T19:49:05;23.10;53.70
74822;DHT22;63353;48.702;8.884;2022-09-09T19:51:32;23.10;53.80
